• Join FlightAware (Why Join?)
  • Login
  • US Flag 
01:35PM EDT


 

Airport Tracker/Info


-or-


 

Live Flight TrackerFlight Track Log ✈ FAB861 ✈ 16-May-2012 ✈ CYFB - CYOW

Flight Track Log - Related Links

Times and Time Zones

All times are in EDT time to prevent confusion due to time zone crossing. See the FAB861 flight status page for this flight to view local times or setup timezone preferences in your user account.

Time Position Orientation Groundspeed Altitude Reporting Facility
EDT Latitude Longitude Course Direction KTS MPH feet Rate Location/Type
01:59PM 63.8000 -68.5667 191° South 160 184 1,400  Level Montreal Center
02:04PM 63.4667 -68.7167 188° South 330 380 13,000 2,220 Climbing Montreal Center
02:05PM 63.3667 -68.7500 208° Southwest 360 414 14,900 2,040 Climbing Montreal Center
02:06PM 63.2833 -68.8500 193° South 390 449 17,100 2,220 Climbing Montreal Center
02:07PM 63.1833 -68.9000 193° South 390 449 19,400 1,920 Climbing Montreal Center
02:08PM 63.0500 -68.9667 195° South 410 472 21,000 1,620 Climbing Montreal Center
02:09PM 62.9333 -69.0333 195° South 430 495 22,700 1,500 Climbing Montreal Center
02:10PM 62.8167 -69.1000 201° Southwest 450 518 24,000 1,620 Climbing Montreal Center
02:11PM 62.7000 -69.2000 193° South 450 518 26,000 1,620 Climbing Montreal Center
02:12PM 62.5667 -69.2667 193° South 450 518 27,300 1,740 Climbing Montreal Center
02:13PM 62.4667 -69.3167 195° South 450 518 29,500 1,740 Climbing Montreal Center
02:14PM 62.3500 -69.3833 195° South 430 495 30,800 960 Climbing Montreal Center
02:15PM 62.2333 -69.4500 191° South 430 495 31,500 600 Climbing Montreal Center
02:16PM 62.1167 -69.5000 196° South 430 495 32,000 120 Climbing Montreal Center
02:19PM 61.7667 -69.7167 195° South 430 495 32,000  Level Montreal Center
02:24PM 61.2000 -70.0333 195° South 420 483 32,000  Level Montreal Center
02:25PM 61.0833 -70.1000 192° South 420 483 32,000  Level Montreal Center
02:26PM 60.9667 -70.1500 199° South 420 483 32,000  Level Montreal Center
02:27PM 60.8500 -70.2333 192° South 430 495 32,000  Level Montreal Center
02:28PM 60.7333 -70.2833 196° South 420 483 32,000  Level Montreal Center
02:29PM 60.6167 -70.3500 192° South 430 495 32,000  Level Montreal Center
02:30PM 60.5000 -70.4000 194° South 420 483 32,000  Level Montreal Center
02:31PM 60.4000 -70.4500 194° South 420 483 32,000  Level Montreal Center
02:32PM 60.3000 -70.5000 192° South 410 472 32,000  Level Montreal Center
02:33PM 60.1833 -70.5500 192° South 410 472 32,000  Level Montreal Center
02:34PM 60.0667 -70.6000 203° Southwest 410 472 32,000  Level Montreal Center
02:35PM 59.9667 -70.6833 192° South 410 472 32,000  Level Montreal Center
02:36PM 59.8500 -70.7333 196° South 400 460 32,000  Level Montreal Center
02:37PM 59.7333 -70.8000 192° South 400 460 32,000  Level Montreal Center
02:38PM 59.6167 -70.8500 190° South 400 460 32,000  Level Montreal Center
02:39PM 59.5167 -70.8833 192° South 400 460 32,000  Level Montreal Center
02:40PM 59.4000 -70.9333 194° South 400 460 32,000  Level Montreal Center
02:41PM 59.3000 -70.9833 192° South 400 460 32,000  Level Montreal Center
02:42PM 59.1833 -71.0333 194° South 400 460 32,000  Level Montreal Center
02:43PM 59.0833 -71.0833 203° Southwest 390 449 32,000  Level Montreal Center
02:44PM 58.9833 -71.1667 192° South 390 449 32,000  Level Montreal Center
02:45PM 58.8667 -71.2167 190° South 380 437 32,000  Level Montreal Center
02:46PM 58.7667 -71.2500 193° South 380 437 32,000  Level Montreal Center
02:47PM 58.6500 -71.3000 195° South 370 426 32,000  Level Montreal Center
02:48PM 58.5500 -71.3500 197° South 370 426 32,000  Level Montreal Center
02:49PM 58.4667 -71.4000 190° South 370 426 32,000  Level Montreal Center
02:50PM 58.3667 -71.4333 195° South 360 414 32,000  Level Montreal Center
02:51PM 58.2667 -71.4833 195° South 370 426 32,000  Level Montreal Center
02:52PM 58.1667 -71.5333 192° South 360 414 32,000 420 Level Montreal Center
02:53PM 58.0833 -71.5667 195° South 350 403 32,900 660 Climbing Montreal Center
02:54PM 57.9833 -71.6167 190° South 360 414 33,400 540 Climbing Montreal Center
02:55PM 57.8833 -71.6500 195° South 370 426 34,000 300 Climbing Montreal Center
02:56PM 57.7833 -71.7000 193° South 370 426 34,000  Level Montreal Center
02:57PM 57.6667 -71.7500 190° South 370 426 34,000  Level Montreal Center
02:58PM 57.5667 -71.7833 195° South 370 426 34,000  Level Montreal Center
02:59PM 57.4667 -71.8333 190° South 370 426 34,000  Level Montreal Center
03:00PM 57.3667 -71.8667 195° South 370 426 34,000  Level Montreal Center
03:01PM 57.2667 -71.9167 192° South 370 426 34,000  Level Montreal Center
03:02PM 57.1833 -71.9500 195° South 360 414 34,000  Level Montreal Center
03:03PM 57.0833 -72.0000 190° South 360 414 34,000  Level Montreal Center
03:04PM 56.9833 -72.0333 195° South 360 414 34,000  Level Montreal Center
03:05PM 56.8833 -72.0833 190° South 360 414 34,000  Level Montreal Center
03:06PM 56.7833 -72.1167 198° South 350 403 34,000  Level Montreal Center
03:07PM 56.7000 -72.1667 190° South 350 403 34,000  Level Montreal Center
03:08PM 56.6000 -72.2000 190° South 350 403 34,000  Level Montreal Center
03:09PM 56.5000 -72.2333 195° South 350 403 34,000  Level Montreal Center
03:10PM 56.4000 -72.2833 190° South 350 403 34,000  Level Montreal Center
03:11PM 56.3000 -72.3167 196° South 360 414 34,000  Level Montreal Center
03:12PM 56.2000 -72.3667 191° South 360 414 34,000  Level Montreal Center
03:13PM 56.1000 -72.4000 191° South 360 414 34,000  Level Montreal Center
03:14PM 56.0000 -72.4333 196° South 350 403 34,000  Level Montreal Center
03:15PM 55.9000 -72.4833 193° South 360 414 34,000  Level Montreal Center
03:16PM 55.8167 -72.5167 191° South 350 403 34,000  Level Montreal Center
03:17PM 55.7167 -72.5500 196° South 360 414 34,000  Level Montreal Center
03:18PM 55.6167 -72.6000 191° South 360 414 34,000  Level Montreal Center
03:19PM 55.5167 -72.6333 191° South 360 414 34,000  Level Montreal Center
03:20PM 55.4167 -72.6667 191° South 350 403 34,000  Level Montreal Center
03:21PM 55.3167 -72.7000 199° South 360 414 34,000  Level Montreal Center
03:22PM 55.2333 -72.7500 189° South 360 414 34,000  Level Montreal Center
03:23PM 55.1167 -72.7833 191° South 360 414 34,000  Level Montreal Center
03:24PM 55.0167 -72.8167 191° South 360 414 34,000  Level Montreal Center
03:25PM 54.9167 -72.8500 199° South 360 414 34,000  Level Montreal Center
03:26PM 54.8333 -72.9000 191° South 360 414 34,000  Level Montreal Center
03:27PM 54.7333 -72.9333 191° South 360 414 34,000  Level Montreal Center
03:28PM 54.6333 -72.9667 191° South 360 414 34,000  Level Montreal Center
03:29PM 54.5333 -73.0000 191° South 360 414 34,000  Level Montreal Center
03:30PM 54.4333 -73.0333 196° South 360 414 34,000  Level Montreal Center
03:31PM 54.3333 -73.0833 191° South 360 414 34,000  Level Montreal Center
03:32PM 54.2333 -73.1167 191° South 360 414 34,000  Level Montreal Center
03:33PM 54.1333 -73.1500 191° South 360 414 34,000  Level Montreal Center
03:34PM 54.0333 -73.1833 191° South 360 414 34,000  Level Montreal Center
03:35PM 53.9333 -73.2167 191° South 360 414 34,000  Level Montreal Center
03:36PM 53.8333 -73.2500 193° South 360 414 34,000  Level Montreal Center
03:37PM 53.7500 -73.2833 191° South 350 403 34,000  Level Montreal Center
03:38PM 53.6500 -73.3167 191° South 350 403 34,000  Level Montreal Center
03:39PM 53.5500 -73.3500 193° South 350 403 34,000  Level Montreal Center
03:40PM 53.4667 -73.3833 191° South 350 403 34,000  Level Montreal Center
03:41PM 53.3667 -73.4167 191° South 350 403 34,000  Level Montreal Center
03:42PM 53.2667 -73.4500 197° South 350 403 34,000  Level Montreal Center
03:43PM 53.1667 -73.5000 191° South 350 403 34,000  Level Montreal Center
03:44PM 53.0667 -73.5333 194° South 350 403 34,000  Level Montreal Center
03:45PM 52.9833 -73.5667 191° South 360 414 34,000  Level Montreal Center
03:46PM 52.8833 -73.6000 191° South 360 414 34,000  Level Montreal Center
03:47PM 52.7833 -73.6333 191° South 360 414 34,000  Level Montreal Center
03:48PM 52.6833 -73.6667 191° South 350 403 34,000  Level Montreal Center
03:49PM 52.5833 -73.7000 191° South 360 414 34,000  Level Montreal Center
03:50PM 52.4833 -73.7333 186° South 360 414 34,000  Level Montreal Center
03:51PM 52.3833 -73.7500 194° South 350 403 34,000  Level Montreal Center
03:52PM 52.3000 -73.7833 192° South 350 403 34,000  Level Montreal Center
03:53PM 52.2000 -73.8167 192° South 350 403 34,000  Level Montreal Center
03:54PM 52.1000 -73.8500 190° South 350 403 34,000  Level Montreal Center
03:55PM 51.9833 -73.8833 192° South 350 403 34,000  Level Montreal Center
03:56PM 51.8833 -73.9167 192° South 360 414 34,000  Level Montreal Center
03:57PM 51.7833 -73.9500 194° South 360 414 34,000  Level Montreal Center
03:58PM 51.7000 -73.9833 190° South 360 414 34,000  Level Montreal Center
03:59PM 51.5833 -74.0167 194° South 360 414 34,000  Level Montreal Center
04:00PM 51.5000 -74.0500 192° South 360 414 34,000  Level Montreal Center
04:01PM 51.4000 -74.0833 186° South 360 414 34,000  Level Montreal Center
04:02PM 51.3000 -74.1000 192° South 360 414 34,000  Level Montreal Center
04:03PM 51.2000 -74.1333 192° South 360 414 34,000  Level Montreal Center
04:04PM 51.1000 -74.1667 192° South 360 414 34,000  Level Montreal Center
04:05PM 51.0000 -74.2000 192° South 360 414 34,000  Level Montreal Center
04:06PM 50.9000 -74.2333 192° South 360 414 34,000  Level Montreal Center
04:07PM 50.8000 -74.2667 186° South 360 414 34,000  Level Montreal Center
04:08PM 50.7000 -74.2833 192° South 360 414 34,000  Level Montreal Center
04:09PM 50.6000 -74.3167 192° South 360 414 34,000  Level Montreal Center
04:10PM 50.5000 -74.3500 192° South 360 414 34,000  Level Montreal Center
04:11PM 50.4000 -74.3833 194° South 360 414 34,000  Level Montreal Center
04:12PM 50.3167 -74.4167 186° South 360 414 34,000  Level Montreal Center
04:13PM 50.2167 -74.4333 192° South 360 414 34,000  Level Montreal Center
04:14PM 50.1167 -74.4667 192° South 360 414 34,000  Level Montreal Center
04:15PM 50.0167 -74.5000 190° South 360 414 34,000  Level Montreal Center
04:16PM 49.9000 -74.5333 187° South 360 414 34,000  Level Montreal Center
04:17PM 49.8167 -74.5500 192° South 360 414 34,000  Level Montreal Center
04:18PM 49.7167 -74.5833 192° South 360 414 34,000  Level Montreal Center
04:19PM 49.6167 -74.6167 192° South 360 414 34,000  Level Montreal Center
04:20PM 49.5167 -74.6500 186° South 360 414 34,000  Level Montreal Center
04:21PM 49.4167 -74.6667 192° South 360 414 34,000  Level Montreal Center
04:22PM 49.3167 -74.7000 192° South 360 414 34,000  Level Montreal Center
04:23PM 49.2167 -74.7333 192° South 360 414 34,000  Level Montreal Center
04:24PM 49.1167 -74.7667 186° South 360 414 34,000  Level Montreal Center
04:25PM 49.0167 -74.7833 192° South 360 414 34,000  Level Montreal Center
04:26PM 48.9167 -74.8167 192° South 360 414 34,000  Level Montreal Center
04:27PM 48.8167 -74.8500 186° South 360 414 34,000  Level Montreal Center
04:28PM 48.7167 -74.8667 191° South 360 414 34,000  Level Montreal Center
04:29PM 48.6000 -74.9000 192° South 360 414 34,000  Level Montreal Center
04:30PM 48.5000 -74.9333 186° South 360 414 34,000  Level Montreal Center
04:31PM 48.4000 -74.9500 193° South 370 426 34,000  Level Montreal Center
04:32PM 48.3000 -74.9833 193° South 370 426 34,000  Level Montreal Center
04:33PM 48.2000 -75.0167 186° South 360 414 34,000  Level Montreal Center
04:34PM 48.1000 -75.0333 193° South 360 414 34,000  Level Montreal Center
04:35PM 48.0000 -75.0667 186° South 360 414 34,000  Level Montreal Center
04:36PM 47.9000 -75.0833 193° South 370 426 34,000  Level Montreal Center
04:37PM 47.8000 -75.1167 199° South 370 426 34,000  Level Montreal Center
04:38PM 47.7000 -75.1667 193° South 360 414 34,000  Level Montreal Center
04:39PM 47.6000 -75.2000 186° South 360 414 34,000  Level Montreal Center
04:40PM 47.5000 -75.2167 193° South 360 414 34,000  Level Montreal Center
04:41PM 47.4000 -75.2500 186° South 360 414 34,000  Level Montreal Center
04:42PM 47.3000 -75.2667 193° South 370 426 34,000  Level Montreal Center
04:43PM 47.2000 -75.3000 193° South 370 426 34,000  Level Montreal Center
04:44PM 47.1000 -75.3333 186° South 370 426 34,000  Level Montreal Center
04:45PM 47.0000 -75.3500 193° South 370 426 34,000 -600 Level Montreal Center
04:46PM 46.9000 -75.3833 187° South 380 437 32,800 -1,620 Descending Montreal Center
04:47PM 46.8000 -75.4000 193° South 360 414 30,800 -2,220 Descending Montreal Center
04:48PM 46.7000 -75.4333 188° South 350 403 28,400 -2,640 Descending Montreal Center
04:49PM 46.6167 -75.4500 193° South 340 391 25,600 -2,700 Descending Montreal Center
04:50PM 46.5167 -75.4833 188° South 340 391 23,000 -2,400 Descending Montreal Center
04:51PM 46.4333 -75.5000 193° South 330 380 20,900 -1,920 Descending Montreal Center
04:52PM 46.3333 -75.5333 180° South 320 368 19,200 -1,860 Descending Montreal Center
04:53PM 46.2667 -75.5333 188° South 300 345 17,200 -2,040 Descending Montreal Center
04:54PM 46.1833 -75.5500 196° South 290 334 15,200 -1,980 Descending Montreal Center
04:55PM 46.1000 -75.5833 190° South 290 334 13,300 -1,680 Descending Montreal Center
04:56PM 46.0333 -75.6000 180° South 280 322 11,900 -1,500 Descending Montreal Center
04:57PM 45.9500 -75.6000 170° South 270 311 10,400 -1,680 Descending Montreal Center
04:58PM 45.8833 -75.5833 172° South 270 311 8,600 -1,440 Descending Montreal Center
04:59PM 45.8000 -75.5667 161° South 280 322 7,600 -1,380 Descending Montreal Center
05:00PM 45.7333 -75.5333 172° South 270 311 5,900 -1,320 Descending Montreal Center
05:01PM 45.6500 -75.5167 161° South 270 311 5,000 -480 Descending Montreal Center
05:02PM 45.5833 -75.4833 172° South 270 311 5,000 -240 Level Montreal Center
05:03PM 45.5000 -75.4667 180° South 270 311 4,600 -720 Descending Montreal Center
05:04PM 45.4333 -75.4667 190° South 250 288 3,600 -840 Descending Montreal Center
05:05PM 45.3667 -75.4833 245° Southwest 210 242 3,000 -840 Descending Montreal Center
05:06PM 45.3500 -75.5333 245° Southwest 160 184 2,000 -900 Descending Montreal Center
05:07PM 45.3333 -75.5833 245° Southwest 130 150 1,200 -720 Descending Montreal Center
05:08PM 45.3167 -75.6333 235° Southwest 130 150 600 -480 Descending Montreal Center
05:09PM 45.3000 -75.6667 235° Southwest 120 138 300 -300 Descending Montreal Center